sensor_id;sensor_type;location;lat;lon;timestamp;temperature;humidity
17956;DHT22;27666;51.498;11.966;2022-12-24T00:02:32;9.70;99.90
17956;DHT22;27666;51.498;11.966;2022-12-24T00:05:19;9.80;99.90
17956;DHT22;27666;51.498;11.966;2022-12-24T00:08:06;9.60;99.90
17956;DHT22;27666;51.498;11.966;2022-12-24T00:10:53;9.70;99.90
17956;DHT22;27666;51.498;11.966;2022-12-24T00:13:40;9.60;99.90
17956;DHT22;27666;51.498;11.966;2022-12-24T00:16:27;9.60;99.90
17956;DHT22;27666;51.498;11.966;2022-12-24T00:19:13;9.60;99.90
17956;DHT22;27666;51.498;11.966;2022-12-24T00:22:00;9.60;99.90
17956;DHT22;27666;51.498;11.966;2022-12-24T00:24:46;9.60;99.90
17956;DHT22;27666;51.498;11.966;2022-12-24T00:27:32;9.60;99.90
17956;DHT22;27666;51.498;11.966;2022-12-24T00:30:20;9.70;99.90
17956;DHT22;27666;51.498;11.966;2022-12-24T00:33:06;9.60;99.90
17956;DHT22;27666;51.498;11.966;2022-12-24T00:35:53;9.60;99.90
17956;DHT22;27666;51.498;11.966;2022-12-24T00:38:39;9.60;99.90
17956;DHT22;27666;51.498;11.966;2022-12-24T00:41:25;9.60;99.90
17956;DHT22;27666;51.498;11.966;2022-12-24T00:44:13;9.60;99.90
17956;DHT22;27666;51.498;11.966;2022-12-24T00:47:01;9.70;99.90
17956;DHT22;27666;51.498;11.966;2022-12-24T00:49:56;9.60;99.90
17956;DHT22;27666;51.498;11.966;2022-12-24T00:52:42;9.80;99.90
17956;DHT22;27666;51.498;11.966;2022-12-24T00:55:28;9.80;99.90
17956;DHT22;27666;51.498;11.966;2022-12-24T00:58:14;9.80;99.90
17956;DHT22;27666;51.498;11.966;2022-12-24T01:01:01;9.90;99.90
17956;DHT22;27666;51.498;11.966;2022-12-24T01:03:49;10.00;99.90
17956;DHT22;27666;51.498;11.966;2022-12-24T01:06:36;10.00;99.90
17956;DHT22;27666;51.498;11.966;2022-12-24T01:09:21;10.00;99.90
17956;DHT22;27666;51.498;11.966;2022-12-24T01:12:08;9.90;99.90
17956;DHT22;27666;51.498;11.966;2022-12-24T01:14:54;9.90;99.90
17956;DHT22;27666;51.498;11.966;2022-12-24T01:17:41;10.00;99.90
17956;DHT22;27666;51.498;11.966;2022-12-24T01:20:29;10.00;99.90
17956;DHT22;27666;51.498;11.966;2022-12-24T01:23:17;10.00;99.90
17956;DHT22;27666;51.498;11.966;2022-12-24T01:26:04;10.00;99.90
17956;DHT22;27666;51.498;11.966;2022-12-24T01:28:50;10.10;99.90
17956;DHT22;27666;51.498;11.966;2022-12-24T01:31:37;10.00;99.90
17956;DHT22;27666;51.498;11.966;2022-12-24T01:34:24;10.10;99.90
17956;DHT22;27666;51.498;11.966;2022-12-24T01:37:11;10.10;99.90
17956;DHT22;27666;51.498;11.966;2022-12-24T01:39:58;10.10;99.90
17956;DHT22;27666;51.498;11.966;2022-12-24T01:42:59;10.10;99.90
17956;DHT22;27666;51.498;11.966;2022-12-24T01:46:03;10.00;99.90
17956;DHT22;27666;51.498;11.966;2022-12-24T01:48:54;10.10;99.90
17956;DHT22;27666;51.498;11.966;2022-12-24T01:51:44;10.10;99.90
17956;DHT22;27666;51.498;11.966;2022-12-24T01:54:35;10.10;99.90
17956;DHT22;27666;51.498;11.966;2022-12-24T01:57:27;10.00;99.90
17956;DHT22;27666;51.498;11.966;2022-12-24T02:00:16;10.00;99.90
17956;DHT22;27666;51.498;11.966;2022-12-24T02:03:03;10.10;99.90
17956;DHT22;27666;51.498;11.966;2022-12-24T02:05:53;10.00;99.90
17956;DHT22;27666;51.498;11.966;2022-12-24T02:08:40;10.00;99.90
17956;DHT22;27666;51.498;11.966;2022-12-24T02:11:29;10.10;99.90
17956;DHT22;27666;51.498;11.966;2022-12-24T02:14:16;10.10;99.90
17956;DHT22;27666;51.498;11.966;2022-12-24T02:17:13;10.10;99.90
17956;DHT22;27666;51.498;11.966;2022-12-24T02:20:17;10.10;99.90
17956;DHT22;27666;51.498;11.966;2022-12-24T02:23:24;10.10;99.90
17956;DHT22;27666;51.498;11.966;2022-12-24T02:26:22;10.00;99.90
17956;DHT22;27666;51.498;11.966;2022-12-24T02:32:28;10.10;99.90
17956;DHT22;27666;51.498;11.966;2022-12-24T02:35:22;10.10;99.90
17956;DHT22;27666;51.498;11.966;2022-12-24T02:38:13;10.10;99.90
17956;DHT22;27666;51.498;11.966;2022-12-24T02:41:05;10.10;99.90
17956;DHT22;27666;51.498;11.966;2022-12-24T02:43:54;10.10;99.90
17956;DHT22;27666;51.498;11.966;2022-12-24T02:46:41;10.10;99.90
17956;DHT22;27666;51.498;11.966;2022-12-24T02:49:29;10.00;99.90
17956;DHT22;27666;51.498;11.966;2022-12-24T02:52:31;10.00;99.90
17956;DHT22;27666;51.498;11.966;2022-12-24T02:55:20;10.00;99.90
17956;DHT22;27666;51.498;11.966;2022-12-24T02:58:17;10.00;99.90
17956;DHT22;27666;51.498;11.966;2022-12-24T03:01:12;10.10;99.90
17956;DHT22;27666;51.498;11.966;2022-12-24T03:04:08;10.10;99.90
17956;DHT22;27666;51.498;11.966;2022-12-24T03:06:59;10.10;99.90
17956;DHT22;27666;51.498;11.966;2022-12-24T03:10:01;10.10;99.90
17956;DHT22;27666;51.498;11.966;2022-12-24T03:12:51;10.10;99.90
17956;DHT22;27666;51.498;11.966;2022-12-24T03:15:39;10.10;99.90
17956;DHT22;27666;51.498;11.966;2022-12-24T03:18:28;10.10;99.90
17956;DHT22;27666;51.498;11.966;2022-12-24T03:21:17;10.10;99.90
17956;DHT22;27666;51.498;11.966;2022-12-24T03:24:08;10.20;99.90
17956;DHT22;27666;51.498;11.966;2022-12-24T03:26:55;10.10;99.90
17956;DHT22;27666;51.498;11.966;2022-12-24T03:29:43;10.10;99.90
17956;DHT22;27666;51.498;11.966;2022-12-24T03:32:31;10.20;99.90
17956;DHT22;27666;51.498;11.966;2022-12-24T03:35:18;10.10;99.90
17956;DHT22;27666;51.498;11.966;2022-12-24T03:38:04;10.00;99.90
17956;DHT22;27666;51.498;11.966;2022-12-24T03:40:52;10.10;99.90
17956;DHT22;27666;51.498;11.966;2022-12-24T03:43:39;10.10;99.90
17956;DHT22;27666;51.498;11.966;2022-12-24T03:46:25;10.10;99.90
17956;DHT22;27666;51.498;11.966;2022-12-24T03:49:12;10.10;99.90
17956;DHT22;27666;51.498;11.966;2022-12-24T03:51:58;10.10;99.90
17956;DHT22;27666;51.498;11.966;2022-12-24T03:54:44;10.10;99.90
17956;DHT22;27666;51.498;11.966;2022-12-24T03:57:32;10.10;99.90
17956;DHT22;27666;51.498;11.966;2022-12-24T04:00:19;10.10;99.90
17956;DHT22;27666;51.498;11.966;2022-12-24T04:03:06;10.10;99.90
17956;DHT22;27666;51.498;11.966;2022-12-24T04:06:00;10.10;99.90
17956;DHT22;27666;51.498;11.966;2022-12-24T04:08:46;10.10;99.90
17956;DHT22;27666;51.498;11.966;2022-12-24T04:11:33;10.10;99.90
17956;DHT22;27666;51.498;11.966;2022-12-24T04:14:20;10.20;99.90
17956;DHT22;27666;51.498;11.966;2022-12-24T04:17:07;10.20;99.90
17956;DHT22;27666;51.498;11.966;2022-12-24T04:19:54;10.20;99.90
17956;DHT22;27666;51.498;11.966;2022-12-24T04:22:40;10.20;99.90
17956;DHT22;27666;51.498;11.966;2022-12-24T04:25:27;10.10;99.90
17956;DHT22;27666;51.498;11.966;2022-12-24T04:28:13;10.20;99.90
17956;DHT22;27666;51.498;11.966;2022-12-24T04:31:03;10.10;99.90
17956;DHT22;27666;51.498;11.966;2022-12-24T04:33:51;10.00;99.90
17956;DHT22;27666;51.498;11.966;2022-12-24T04:36:38;10.10;99.90
17956;DHT22;27666;51.498;11.966;2022-12-24T04:39:24;10.10;99.90
17956;DHT22;27666;51.498;11.966;2022-12-24T04:42:10;10.10;99.90
17956;DHT22;27666;51.498;11.966;2022-12-24T04:44:57;10.10;99.90
17956;DHT22;27666;51.498;11.966;2022-12-24T04:47:44;10.10;99.90
17956;DHT22;27666;51.498;11.966;2022-12-24T04:50:31;10.10;99.90
17956;DHT22;27666;51.498;11.966;2022-12-24T04:53:17;10.10;99.90
17956;DHT22;27666;51.498;11.966;2022-12-24T04:56:06;10.10;99.90
17956;DHT22;27666;51.498;11.966;2022-12-24T04:58:54;10.10;99.90
17956;DHT22;27666;51.498;11.966;2022-12-24T05:01:41;10.10;99.90
17956;DHT22;27666;51.498;11.966;2022-12-24T05:04:29;10.10;99.90
17956;DHT22;27666;51.498;11.966;2022-12-24T05:07:16;10.10;99.90
17956;DHT22;27666;51.498;11.966;2022-12-24T05:10:02;10.10;99.90
17956;DHT22;27666;51.498;11.966;2022-12-24T05:12:49;10.00;99.90
17956;DHT22;27666;51.498;11.966;2022-12-24T05:15:36;10.10;99.90
17956;DHT22;27666;51.498;11.966;2022-12-24T05:18:22;10.10;99.90
17956;DHT22;27666;51.498;11.966;2022-12-24T05:21:13;10.00;99.90
17956;DHT22;27666;51.498;11.966;2022-12-24T05:24:00;9.90;99.90
17956;DHT22;27666;51.498;11.966;2022-12-24T05:27:04;9.90;99.90
17956;DHT22;27666;51.498;11.966;2022-12-24T05:29:50;9.80;99.90
17956;DHT22;27666;51.498;11.966;2022-12-24T05:32:37;9.70;99.90
17956;DHT22;27666;51.498;11.966;2022-12-24T05:35:23;9.70;99.90
17956;DHT22;27666;51.498;11.966;2022-12-24T05:38:11;9.70;99.90
17956;DHT22;27666;51.498;11.966;2022-12-24T05:40:57;9.70;99.90
17956;DHT22;27666;51.498;11.966;2022-12-24T05:43:44;9.70;99.90
17956;DHT22;27666;51.498;11.966;2022-12-24T05:46:30;9.60;99.90
17956;DHT22;27666;51.498;11.966;2022-12-24T05:49:17;9.70;99.90
17956;DHT22;27666;51.498;11.966;2022-12-24T05:52:03;9.80;99.90
17956;DHT22;27666;51.498;11.966;2022-12-24T05:54:51;9.70;99.90
17956;DHT22;27666;51.498;11.966;2022-12-24T05:57:39;9.80;99.90
17956;DHT22;27666;51.498;11.966;2022-12-24T06:00:25;9.80;99.90
17956;DHT22;27666;51.498;11.966;2022-12-24T06:03:12;9.80;99.90
17956;DHT22;27666;51.498;11.966;2022-12-24T06:06:00;9.90;99.90
17956;DHT22;27666;51.498;11.966;2022-12-24T06:08:47;9.80;99.90
17956;DHT22;27666;51.498;11.966;2022-12-24T06:11:35;9.80;99.90
17956;DHT22;27666;51.498;11.966;2022-12-24T06:14:22;9.80;99.90
17956;DHT22;27666;51.498;11.966;2022-12-24T06:17:08;9.80;99.90
17956;DHT22;27666;51.498;11.966;2022-12-24T06:19:54;9.80;99.90
17956;DHT22;27666;51.498;11.966;2022-12-24T06:22:41;9.70;99.90
17956;DHT22;27666;51.498;11.966;2022-12-24T06:25:27;9.70;99.90
17956;DHT22;27666;51.498;11.966;2022-12-24T06:28:15;9.70;99.90
17956;DHT22;27666;51.498;11.966;2022-12-24T06:31:03;9.70;99.90
17956;DHT22;27666;51.498;11.966;2022-12-24T06:33:51;9.70;99.90
17956;DHT22;27666;51.498;11.966;2022-12-24T06:36:38;9.60;99.90
17956;DHT22;27666;51.498;11.966;2022-12-24T06:39:24;9.60;99.90
17956;DHT22;27666;51.498;11.966;2022-12-24T06:42:11;9.60;99.90
17956;DHT22;27666;51.498;11.966;2022-12-24T06:44:58;9.60;99.90
17956;DHT22;27666;51.498;11.966;2022-12-24T06:47:52;9.60;99.90
17956;DHT22;27666;51.498;11.966;2022-12-24T06:50:38;9.50;99.90
17956;DHT22;27666;51.498;11.966;2022-12-24T06:53:25;9.40;99.90
17956;DHT22;27666;51.498;11.966;2022-12-24T06:56:12;9.30;99.90
17956;DHT22;27666;51.498;11.966;2022-12-24T06:58:58;9.30;99.90
17956;DHT22;27666;51.498;11.966;2022-12-24T07:01:51;9.20;99.90
17956;DHT22;27666;51.498;11.966;2022-12-24T07:04:38;9.20;99.90
17956;DHT22;27666;51.498;11.966;2022-12-24T07:07:24;9.10;99.90
17956;DHT22;27666;51.498;11.966;2022-12-24T07:12:58;8.80;99.90
17956;DHT22;27666;51.498;11.966;2022-12-24T07:15:45;8.90;99.90
17956;DHT22;27666;51.498;11.966;2022-12-24T07:18:33;8.90;99.90
17956;DHT22;27666;51.498;11.966;2022-12-24T07:21:19;8.80;99.90
17956;DHT22;27666;51.498;11.966;2022-12-24T07:24:06;8.80;99.90
17956;DHT22;27666;51.498;11.966;2022-12-24T07:26:52;8.70;99.90
17956;DHT22;27666;51.498;11.966;2022-12-24T07:29:39;8.60;99.90
17956;DHT22;27666;51.498;11.966;2022-12-24T07:32:25;8.80;99.90
17956;DHT22;27666;51.498;11.966;2022-12-24T07:35:13;8.80;99.90
17956;DHT22;27666;51.498;11.966;2022-12-24T07:38:00;8.80;99.90
17956;DHT22;27666;51.498;11.966;2022-12-24T07:40:47;8.80;99.90
17956;DHT22;27666;51.498;11.966;2022-12-24T07:43:34;8.70;99.90
17956;DHT22;27666;51.498;11.966;2022-12-24T07:46:21;8.70;99.90
17956;DHT22;27666;51.498;11.966;2022-12-24T07:49:08;8.80;99.90
17956;DHT22;27666;51.498;11.966;2022-12-24T07:51:56;8.80;99.90
17956;DHT22;27666;51.498;11.966;2022-12-24T07:54:42;8.80;99.90
17956;DHT22;27666;51.498;11.966;2022-12-24T07:57:29;8.90;99.90
17956;DHT22;27666;51.498;11.966;2022-12-24T08:00:17;9.00;99.90
17956;DHT22;27666;51.498;11.966;2022-12-24T08:03:04;9.00;99.90
17956;DHT22;27666;51.498;11.966;2022-12-24T08:05:51;9.00;99.90
17956;DHT22;27666;51.498;11.966;2022-12-24T08:08:39;9.10;99.90
17956;DHT22;27666;51.498;11.966;2022-12-24T08:11:26;9.10;99.90
17956;DHT22;27666;51.498;11.966;2022-12-24T08:14:12;9.20;99.90
17956;DHT22;27666;51.498;11.966;2022-12-24T08:16:59;9.30;99.90
17956;DHT22;27666;51.498;11.966;2022-12-24T08:19:46;9.40;99.90
17956;DHT22;27666;51.498;11.966;2022-12-24T08:22:32;9.60;99.90
17956;DHT22;27666;51.498;11.966;2022-12-24T08:25:20;9.60;99.90
17956;DHT22;27666;51.498;11.966;2022-12-24T08:28:07;9.70;99.90
17956;DHT22;27666;51.498;11.966;2022-12-24T08:30:53;9.80;99.90
17956;DHT22;27666;51.498;11.966;2022-12-24T08:33:39;10.00;99.90
17956;DHT22;27666;51.498;11.966;2022-12-24T08:36:26;10.00;99.90
17956;DHT22;27666;51.498;11.966;2022-12-24T08:39:12;10.00;99.90
17956;DHT22;27666;51.498;11.966;2022-12-24T08:42:00;10.20;99.90
17956;DHT22;27666;51.498;11.966;2022-12-24T08:44:47;10.20;99.90
17956;DHT22;27666;51.498;11.966;2022-12-24T08:47:33;10.30;99.90
17956;DHT22;27666;51.498;11.966;2022-12-24T08:50:19;10.40;99.90
17956;DHT22;27666;51.498;11.966;2022-12-24T08:53:06;10.40;99.90
17956;DHT22;27666;51.498;11.966;2022-12-24T08:55:52;10.50;99.90
17956;DHT22;27666;51.498;11.966;2022-12-24T08:58:47;10.50;99.90
17956;DHT22;27666;51.498;11.966;2022-12-24T09:01:33;10.60;99.90
17956;DHT22;27666;51.498;11.966;2022-12-24T09:04:20;10.80;99.90
17956;DHT22;27666;51.498;11.966;2022-12-24T09:07:07;10.90;99.90
17956;DHT22;27666;51.498;11.966;2022-12-24T09:09:54;11.00;99.90
17956;DHT22;27666;51.498;11.966;2022-12-24T09:12:41;11.10;99.90
17956;DHT22;27666;51.498;11.966;2022-12-24T09:15:29;11.30;99.90
17956;DHT22;27666;51.498;11.966;2022-12-24T09:18:16;11.30;99.90
17956;DHT22;27666;51.498;11.966;2022-12-24T09:21:04;11.40;99.90
17956;DHT22;27666;51.498;11.966;2022-12-24T09:23:51;11.20;99.90
17956;DHT22;27666;51.498;11.966;2022-12-24T09:26:39;11.00;99.90
17956;DHT22;27666;51.498;11.966;2022-12-24T09:29:26;11.00;99.90
17956;DHT22;27666;51.498;11.966;2022-12-24T09:32:14;11.00;99.90
17956;DHT22;27666;51.498;11.966;2022-12-24T09:35:01;11.10;99.90
17956;DHT22;27666;51.498;11.966;2022-12-24T09:37:47;11.00;99.90
17956;DHT22;27666;51.498;11.966;2022-12-24T09:40:47;11.00;99.90
17956;DHT22;27666;51.498;11.966;2022-12-24T09:43:34;11.10;99.90
17956;DHT22;27666;51.498;11.966;2022-12-24T09:46:25;11.30;99.90
17956;DHT22;27666;51.498;11.966;2022-12-24T09:49:17;11.50;99.90
17956;DHT22;27666;51.498;11.966;2022-12-24T09:52:06;11.60;99.90
17956;DHT22;27666;51.498;11.966;2022-12-24T09:55:00;11.70;99.90
17956;DHT22;27666;51.498;11.966;2022-12-24T09:57:50;11.80;99.90
17956;DHT22;27666;51.498;11.966;2022-12-24T10:00:38;11.80;99.90
17956;DHT22;27666;51.498;11.966;2022-12-24T10:03:33;12.00;99.90
17956;DHT22;27666;51.498;11.966;2022-12-24T10:06:26;12.00;99.90
17956;DHT22;27666;51.498;11.966;2022-12-24T10:09:22;12.10;99.90
17956;DHT22;27666;51.498;11.966;2022-12-24T10:12:17;12.20;99.90
17956;DHT22;27666;51.498;11.966;2022-12-24T10:15:12;12.20;99.90
17956;DHT22;27666;51.498;11.966;2022-12-24T10:18:12;12.30;99.90
17956;DHT22;27666;51.498;11.966;2022-12-24T10:21:08;12.50;99.90
17956;DHT22;27666;51.498;11.966;2022-12-24T10:24:02;12.50;99.90
17956;DHT22;27666;51.498;11.966;2022-12-24T10:26:55;12.40;99.90
17956;DHT22;27666;51.498;11.966;2022-12-24T10:29:44;12.20;99.90
17956;DHT22;27666;51.498;11.966;2022-12-24T10:32:33;12.10;99.90
17956;DHT22;27666;51.498;11.966;2022-12-24T10:35:22;12.10;99.90
17956;DHT22;27666;51.498;11.966;2022-12-24T10:38:10;12.00;99.90
17956;DHT22;27666;51.498;11.966;2022-12-24T10:40:59;12.00;99.90
17956;DHT22;27666;51.498;11.966;2022-12-24T10:43:47;11.70;99.90
17956;DHT22;27666;51.498;11.966;2022-12-24T10:46:37;11.70;99.90
17956;DHT22;27666;51.498;11.966;2022-12-24T10:49:34;11.60;99.90
17956;DHT22;27666;51.498;11.966;2022-12-24T10:52:24;11.70;99.90
17956;DHT22;27666;51.498;11.966;2022-12-24T10:55:21;11.60;99.90
17956;DHT22;27666;51.498;11.966;2022-12-24T10:58:15;11.60;99.90
17956;DHT22;27666;51.498;11.966;2022-12-24T11:01:04;11.60;99.90
17956;DHT22;27666;51.498;11.966;2022-12-24T11:03:59;11.80;99.90
17956;DHT22;27666;51.498;11.966;2022-12-24T11:06:54;11.70;99.90
17956;DHT22;27666;51.498;11.966;2022-12-24T11:09:41;11.80;99.90
17956;DHT22;27666;51.498;11.966;2022-12-24T11:12:45;11.80;99.90
17956;DHT22;27666;51.498;11.966;2022-12-24T11:16:02;11.70;99.90
17956;DHT22;27666;51.498;11.966;2022-12-24T11:18:51;11.70;99.90
17956;DHT22;27666;51.498;11.966;2022-12-24T11:21:39;11.70;99.90
17956;DHT22;27666;51.498;11.966;2022-12-24T11:24:28;11.80;99.90
17956;DHT22;27666;51.498;11.966;2022-12-24T11:27:29;11.90;99.90
17956;DHT22;27666;51.498;11.966;2022-12-24T11:30:21;12.00;99.90
17956;DHT22;27666;51.498;11.966;2022-12-24T11:33:19;12.00;99.90
17956;DHT22;27666;51.498;11.966;2022-12-24T11:36:11;12.00;99.90
17956;DHT22;27666;51.498;11.966;2022-12-24T11:38:59;12.00;99.90
17956;DHT22;27666;51.498;11.966;2022-12-24T11:41:45;12.00;99.90
17956;DHT22;27666;51.498;11.966;2022-12-24T11:44:32;12.10;99.90
17956;DHT22;27666;51.498;11.966;2022-12-24T11:47:31;12.10;99.90
17956;DHT22;27666;51.498;11.966;2022-12-24T11:50:23;12.00;99.90
17956;DHT22;27666;51.498;11.966;2022-12-24T11:53:13;11.90;99.90
17956;DHT22;27666;51.498;11.966;2022-12-24T11:56:05;11.90;99.90
17956;DHT22;27666;51.498;11.966;2022-12-24T11:58:57;12.00;99.90
17956;DHT22;27666;51.498;11.966;2022-12-24T12:01:50;11.90;99.90
17956;DHT22;27666;51.498;11.966;2022-12-24T12:04:39;12.00;99.90
17956;DHT22;27666;51.498;11.966;2022-12-24T12:07:32;11.90;99.90
17956;DHT22;27666;51.498;11.966;2022-12-24T12:10:22;11.90;99.90
17956;DHT22;27666;51.498;11.966;2022-12-24T12:13:12;11.90;99.90
17956;DHT22;27666;51.498;11.966;2022-12-24T12:16:06;12.00;99.90
17956;DHT22;27666;51.498;11.966;2022-12-24T12:19:02;11.90;99.90
17956;DHT22;27666;51.498;11.966;2022-12-24T12:21:59;12.00;99.90
17956;DHT22;27666;51.498;11.966;2022-12-24T12:24:52;12.10;99.90
17956;DHT22;27666;51.498;11.966;2022-12-24T12:27:43;12.00;99.90
17956;DHT22;27666;51.498;11.966;2022-12-24T12:30:32;12.10;99.90
17956;DHT22;27666;51.498;11.966;2022-12-24T12:33:25;12.00;99.90
17956;DHT22;27666;51.498;11.966;2022-12-24T12:36:17;12.20;99.90
17956;DHT22;27666;51.498;11.966;2022-12-24T12:39:08;12.10;99.90
17956;DHT22;27666;51.498;11.966;2022-12-24T12:42:00;12.10;99.90
17956;DHT22;27666;51.498;11.966;2022-12-24T12:44:59;12.10;99.90
17956;DHT22;27666;51.498;11.966;2022-12-24T12:47:58;12.10;99.90
17956;DHT22;27666;51.498;11.966;2022-12-24T12:50:53;12.10;99.90
17956;DHT22;27666;51.498;11.966;2022-12-24T12:53:49;12.00;99.90
17956;DHT22;27666;51.498;11.966;2022-12-24T12:56:43;12.00;99.90
17956;DHT22;27666;51.498;11.966;2022-12-24T12:59:35;12.00;99.90
17956;DHT22;27666;51.498;11.966;2022-12-24T13:02:41;12.00;99.90
17956;DHT22;27666;51.498;11.966;2022-12-24T13:05:59;11.90;99.90
17956;DHT22;27666;51.498;11.966;2022-12-24T13:09:16;11.90;99.90
17956;DHT22;27666;51.498;11.966;2022-12-24T13:15:51;11.80;99.90
17956;DHT22;27666;51.498;11.966;2022-12-24T13:18:54;11.70;99.90
17956;DHT22;27666;51.498;11.966;2022-12-24T13:21:44;11.60;99.90
17956;DHT22;27666;51.498;11.966;2022-12-24T13:24:33;11.50;99.90
17956;DHT22;27666;51.498;11.966;2022-12-24T13:27:23;11.50;99.90
17956;DHT22;27666;51.498;11.966;2022-12-24T13:30:32;11.50;99.90
17956;DHT22;27666;51.498;11.966;2022-12-24T13:33:48;11.50;99.90
17956;DHT22;27666;51.498;11.966;2022-12-24T13:37:01;11.40;99.90
17956;DHT22;27666;51.498;11.966;2022-12-24T13:40:13;11.40;99.90
17956;DHT22;27666;51.498;11.966;2022-12-24T13:43:07;11.40;99.90
17956;DHT22;27666;51.498;11.966;2022-12-24T13:45:56;11.40;99.90
17956;DHT22;27666;51.498;11.966;2022-12-24T13:48:43;11.50;99.90
17956;DHT22;27666;51.498;11.966;2022-12-24T13:51:32;11.60;99.90
17956;DHT22;27666;51.498;11.966;2022-12-24T13:54:22;11.50;99.90
17956;DHT22;27666;51.498;11.966;2022-12-24T13:57:39;11.50;99.90
17956;DHT22;27666;51.498;11.966;2022-12-24T14:00:32;11.60;99.90
17956;DHT22;27666;51.498;11.966;2022-12-24T14:03:28;11.60;99.90
17956;DHT22;27666;51.498;11.966;2022-12-24T14:06:22;11.40;99.90
17956;DHT22;27666;51.498;11.966;2022-12-24T14:09:13;11.30;99.90
17956;DHT22;27666;51.498;11.966;2022-12-24T14:12:15;11.20;99.90
17956;DHT22;27666;51.498;11.966;2022-12-24T14:15:44;11.30;99.90
17956;DHT22;27666;51.498;11.966;2022-12-24T14:18:34;11.20;99.90
17956;DHT22;27666;51.498;11.966;2022-12-24T14:21:25;11.10;99.90
17956;DHT22;27666;51.498;11.966;2022-12-24T14:24:16;11.10;99.90
17956;DHT22;27666;51.498;11.966;2022-12-24T14:27:20;11.10;99.90
17956;DHT22;27666;51.498;11.966;2022-12-24T14:30:17;11.10;99.90
17956;DHT22;27666;51.498;11.966;2022-12-24T14:33:04;11.00;99.90
17956;DHT22;27666;51.498;11.966;2022-12-24T14:35:51;10.90;99.90
17956;DHT22;27666;51.498;11.966;2022-12-24T14:38:39;11.00;99.90
17956;DHT22;27666;51.498;11.966;2022-12-24T14:41:35;10.90;99.90
17956;DHT22;27666;51.498;11.966;2022-12-24T14:44:30;11.00;99.90
17956;DHT22;27666;51.498;11.966;2022-12-24T14:47:26;11.00;99.90
17956;DHT22;27666;51.498;11.966;2022-12-24T14:50:27;11.00;99.90
17956;DHT22;27666;51.498;11.966;2022-12-24T14:53:25;11.10;99.90
17956;DHT22;27666;51.498;11.966;2022-12-24T14:56:14;11.10;99.90
17956;DHT22;27666;51.498;11.966;2022-12-24T14:59:14;11.10;99.90
17956;DHT22;27666;51.498;11.966;2022-12-24T15:05:25;11.10;99.90
17956;DHT22;27666;51.498;11.966;2022-12-24T15:08:16;11.00;99.90
17956;DHT22;27666;51.498;11.966;2022-12-24T15:11:05;10.70;99.90
17956;DHT22;27666;51.498;11.966;2022-12-24T15:13:54;10.30;99.90
17956;DHT22;27666;51.498;11.966;2022-12-24T15:16:54;10.10;99.90
17956;DHT22;27666;51.498;11.966;2022-12-24T15:19:42;9.90;99.90
17956;DHT22;27666;51.498;11.966;2022-12-24T15:22:30;9.90;99.90
17956;DHT22;27666;51.498;11.966;2022-12-24T15:25:19;9.90;99.90
17956;DHT22;27666;51.498;11.966;2022-12-24T15:28:15;10.10;99.90
17956;DHT22;27666;51.498;11.966;2022-12-24T15:31:10;10.10;99.90
17956;DHT22;27666;51.498;11.966;2022-12-24T15:33:59;10.10;99.90
17956;DHT22;27666;51.498;11.966;2022-12-24T15:36:45;10.00;99.90
17956;DHT22;27666;51.498;11.966;2022-12-24T15:39:32;9.80;99.90
17956;DHT22;27666;51.498;11.966;2022-12-24T15:42:19;9.70;99.90
17956;DHT22;27666;51.498;11.966;2022-12-24T15:45:11;9.60;99.90
17956;DHT22;27666;51.498;11.966;2022-12-24T15:48:05;9.60;99.90
17956;DHT22;27666;51.498;11.966;2022-12-24T15:50:56;9.60;99.90
17956;DHT22;27666;51.498;11.966;2022-12-24T15:53:44;9.60;99.90
17956;DHT22;27666;51.498;11.966;2022-12-24T15:56:37;9.60;99.90
17956;DHT22;27666;51.498;11.966;2022-12-24T15:59:30;9.70;99.90
17956;DHT22;27666;51.498;11.966;2022-12-24T16:02:32;9.70;99.90
17956;DHT22;27666;51.498;11.966;2022-12-24T16:05:30;9.70;99.90
17956;DHT22;27666;51.498;11.966;2022-12-24T16:08:28;9.70;99.90
17956;DHT22;27666;51.498;11.966;2022-12-24T16:11:17;9.60;99.90
17956;DHT22;27666;51.498;11.966;2022-12-24T16:14:09;9.60;99.90
17956;DHT22;27666;51.498;11.966;2022-12-24T16:16:58;9.30;99.90
17956;DHT22;27666;51.498;11.966;2022-12-24T16:19:46;9.30;99.90
17956;DHT22;27666;51.498;11.966;2022-12-24T16:22:33;9.40;99.90
17956;DHT22;27666;51.498;11.966;2022-12-24T16:25:26;9.30;99.90
17956;DHT22;27666;51.498;11.966;2022-12-24T16:28:14;9.30;99.90
17956;DHT22;27666;51.498;11.966;2022-12-24T16:31:12;9.30;99.90
17956;DHT22;27666;51.498;11.966;2022-12-24T16:34:02;9.20;99.90
17956;DHT22;27666;51.498;11.966;2022-12-24T16:36:49;9.30;99.90
17956;DHT22;27666;51.498;11.966;2022-12-24T16:39:36;9.20;99.90
17956;DHT22;27666;51.498;11.966;2022-12-24T16:42:24;9.20;99.90
17956;DHT22;27666;51.498;11.966;2022-12-24T16:45:28;9.30;99.90
17956;DHT22;27666;51.498;11.966;2022-12-24T16:48:19;9.30;99.90
17956;DHT22;27666;51.498;11.966;2022-12-24T16:51:06;9.20;99.90
17956;DHT22;27666;51.498;11.966;2022-12-24T16:53:52;9.20;99.90
17956;DHT22;27666;51.498;11.966;2022-12-24T16:56:39;9.20;99.90
17956;DHT22;27666;51.498;11.966;2022-12-24T16:59:26;9.00;99.90
17956;DHT22;27666;51.498;11.966;2022-12-24T17:02:15;9.00;99.90
17956;DHT22;27666;51.498;11.966;2022-12-24T17:05:03;9.00;99.90
17956;DHT22;27666;51.498;11.966;2022-12-24T17:07:50;9.00;99.90
17956;DHT22;27666;51.498;11.966;2022-12-24T17:10:36;9.00;99.90
17956;DHT22;27666;51.498;11.966;2022-12-24T17:13:23;9.10;99.90
17956;DHT22;27666;51.498;11.966;2022-12-24T17:16:11;9.10;99.90
17956;DHT22;27666;51.498;11.966;2022-12-24T17:18:58;9.00;99.90
17956;DHT22;27666;51.498;11.966;2022-12-24T17:21:45;9.00;99.90
17956;DHT22;27666;51.498;11.966;2022-12-24T17:24:31;9.10;99.90
17956;DHT22;27666;51.498;11.966;2022-12-24T17:27:18;9.10;99.90
17956;DHT22;27666;51.498;11.966;2022-12-24T17:30:05;9.10;99.90
17956;DHT22;27666;51.498;11.966;2022-12-24T17:32:54;9.10;99.90
17956;DHT22;27666;51.498;11.966;2022-12-24T17:35:40;9.10;99.90
17956;DHT22;27666;51.498;11.966;2022-12-24T17:38:27;9.10;99.90
17956;DHT22;27666;51.498;11.966;2022-12-24T17:41:14;8.90;99.90
17956;DHT22;27666;51.498;11.966;2022-12-24T17:44:01;9.00;99.90
17956;DHT22;27666;51.498;11.966;2022-12-24T17:46:48;8.90;99.90
17956;DHT22;27666;51.498;11.966;2022-12-24T17:49:37;8.90;99.90
17956;DHT22;27666;51.498;11.966;2022-12-24T17:52:23;8.80;99.90
17956;DHT22;27666;51.498;11.966;2022-12-24T17:55:09;8.80;99.90
17956;DHT22;27666;51.498;11.966;2022-12-24T17:57:56;8.80;99.90
17956;DHT22;27666;51.498;11.966;2022-12-24T18:00:43;8.80;99.90